createdAt,value
2023-01-04T00:00:29.329Z,99528.16
2023-01-04T00:02:59.026Z,99522.16
2023-01-04T00:05:28.449Z,99529.03
2023-01-04T00:07:57.942Z,99518.41
2023-01-04T00:10:27.349Z,99521.97
2023-01-04T00:12:56.506Z,99523.16
2023-01-04T00:15:26.036Z,99525.75
2023-01-04T00:17:55.579Z,99524.03
2023-01-04T00:20:24.964Z,99532.56
2023-01-04T00:22:54.624Z,99531.59
2023-01-04T00:25:23.660Z,99536.63
2023-01-04T00:27:53.853Z,99536.63
2023-01-04T00:30:23.177Z,99528.06
2023-01-04T00:32:52.337Z,99541.47
2023-01-04T00:35:44.197Z,99542.09
2023-01-04T00:38:11.275Z,99548.25
2023-01-04T00:40:40.899Z,99553.38
2023-01-04T00:43:10.160Z,99541.53
2023-01-04T00:45:39.484Z,99544.22
2023-01-04T00:48:08.605Z,99549.53
2023-01-04T00:50:37.559Z,99554.34
2023-01-04T00:53:07.388Z,99561.25
2023-01-04T00:55:36.568Z,99560.53
2023-01-04T00:58:05.926Z,99573.59
2023-01-04T01:00:39.024Z,99566.31
2023-01-04T01:03:09.660Z,99564.16
2023-01-04T01:05:41.099Z,99572.84
2023-01-04T01:08:29.382Z,99576.06
2023-01-04T01:11:07.520Z,99577.41
2023-01-04T01:13:40.790Z,99572.06
2023-01-04T01:16:13.768Z,99578.72
2023-01-04T01:18:46.197Z,99579.91
2023-01-04T01:21:18.865Z,99589.06
2023-01-04T01:23:49.642Z,99586.91
2023-01-04T01:26:22.167Z,99590.91
2023-01-04T01:28:51.491Z,99596.06
2023-01-04T01:31:23.692Z,99590.47
2023-01-04T01:33:55.464Z,99601.72
2023-01-04T01:36:27.963Z,99601.06
2023-01-04T01:38:58.269Z,99601.13
2023-01-04T01:41:33.602Z,99605.13
2023-01-04T01:44:27.347Z,99606.16
2023-01-04T01:46:57.161Z,99617.25
2023-01-04T01:49:31.487Z,99621.06
2023-01-04T01:52:05.819Z,99624.63
2023-01-04T01:54:38.661Z,99627.44
2023-01-04T01:57:11.120Z,99630.50
2023-01-04T01:59:42.244Z,99634.28
2023-01-04T02:02:13.508Z,99639.31
2023-01-04T02:04:49.060Z,99635.97
2023-01-04T02:07:24.091Z,99636.84
2023-01-04T02:09:53.791Z,99643.91
2023-01-04T02:12:23.771Z,99641.44
2023-01-04T02:14:53.744Z,99647.53
2023-01-04T02:17:39.092Z,99642.75
2023-01-04T02:20:41.715Z,99646.88
2023-01-04T02:23:36.175Z,99652.09
2023-01-04T02:26:30.323Z,99661.53
2023-01-04T02:29:21.456Z,99664.31
2023-01-04T02:31:57.285Z,99665.53
2023-01-04T02:34:33.155Z,99669.78
2023-01-04T02:37:10.175Z,99667.81
2023-01-04T02:40:17.805Z,99669.56
2023-01-04T02:43:19.078Z,99678.19
2023-01-04T02:45:59.842Z,99685.84
2023-01-04T02:48:58.679Z,99684.53
2023-01-04T02:51:36.891Z,99691.19
2023-01-04T02:54:16.578Z,99695.00
2023-01-04T02:57:05.693Z,99702.72
2023-01-04T02:59:59.468Z,99713.09
2023-01-04T03:03:04.814Z,99717.94
2023-01-04T03:06:16.598Z,99733.97
2023-01-04T03:09:07.667Z,99731.66
2023-01-04T03:12:24.729Z,99731.25
2023-01-04T03:15:12.218Z,99739.09
2023-01-04T03:18:05.383Z,99736.28
2023-01-04T03:20:35.259Z,99738.31
2023-01-04T03:23:26.839Z,99744.03
2023-01-04T03:26:22.988Z,99752.59
2023-01-04T03:29:12.255Z,99750.44
2023-01-04T03:32:18.550Z,99757.00
2023-01-04T03:35:07.131Z,99764.56
2023-01-04T03:37:50.819Z,99769.19
2023-01-04T03:40:47.859Z,99775.03
2023-01-04T03:43:49.359Z,99786.31
2023-01-04T03:46:55.984Z,99790.38
2023-01-04T03:49:35.463Z,99801.31
2023-01-04T03:52:07.765Z,99803.75
2023-01-04T03:54:41.233Z,99800.28
2023-01-04T03:57:12.959Z,99809.16
2023-01-04T03:59:48.911Z,99806.09
2023-01-04T04:02:24.410Z,99812.84
2023-01-04T04:05:15.199Z,99810.84
2023-01-04T04:08:02.686Z,99806.22
2023-01-04T04:10:32.444Z,99810.94
2023-01-04T04:13:02.038Z,99808.59
2023-01-04T04:15:32.041Z,99814.88
2023-01-04T04:18:01.481Z,99816.28
2023-01-04T04:20:30.902Z,99815.88
2023-01-04T04:23:00.941Z,99819.78
2023-01-04T04:25:30.585Z,99815.09
2023-01-04T04:28:00.511Z,99815.97
2023-01-04T04:30:30.106Z,99820.75
2023-01-04T04:32:59.883Z,99829.59
2023-01-04T04:35:29.362Z,99832.09
2023-01-04T04:37:58.626Z,99835.72
2023-01-04T04:40:46.548Z,99841.53
2023-01-04T04:43:18.949Z,99842.16
2023-01-04T04:45:48.537Z,99841.34
2023-01-04T04:48:18.995Z,99848.56
2023-01-04T04:50:48.519Z,99848.75
2023-01-04T04:53:20.383Z,99851.38
2023-01-04T04:55:53.323Z,99851.19
2023-01-04T04:58:25.921Z,99855.25
2023-01-04T05:00:55.560Z,99854.19
2023-01-04T05:03:25.408Z,99840.56
2023-01-04T05:05:55.243Z,99846.66
2023-01-04T05:08:24.994Z,99846.78
2023-01-04T05:10:54.902Z,99845.22
2023-01-04T05:13:24.685Z,99838.91
2023-01-04T05:15:56.379Z,99843.88
2023-01-04T05:18:26.007Z,99849.81
2023-01-04T05:20:55.699Z,99856.53
2023-01-04T05:23:27.058Z,99844.91
2023-01-04T05:26:01.334Z,99838.84
2023-01-04T05:28:31.109Z,99843.56
2023-01-04T05:31:00.227Z,99847.19
2023-01-04T05:33:32.793Z,99851.03
2023-01-04T05:36:05.079Z,99848.00
2023-01-04T05:38:36.041Z,99856.81
2023-01-04T05:41:25.684Z,99843.34
2023-01-04T05:43:55.993Z,99842.97
2023-01-04T05:46:25.247Z,99835.88
2023-01-04T05:48:55.338Z,99831.16
2023-01-04T05:51:25.071Z,99824.28
2023-01-04T05:53:54.638Z,99822.59
2023-01-04T05:56:24.248Z,99812.28
2023-01-04T05:58:53.568Z,99809.50
2023-01-04T06:01:23.560Z,99808.09
2023-01-04T06:03:54.222Z,99808.34
2023-01-04T06:06:23.444Z,99801.56
2023-01-04T06:08:53.113Z,99813.06
2023-01-04T06:11:27.434Z,99810.16
2023-01-04T06:13:57.872Z,99809.47
2023-01-04T06:16:27.157Z,99813.00
2023-01-04T06:18:57.214Z,99811.09
2023-01-04T06:21:29.480Z,99810.28
2023-01-04T06:24:01.769Z,99808.28
2023-01-04T06:26:31.663Z,99803.72
2023-01-04T06:29:02.118Z,99799.34
2023-01-04T06:31:31.711Z,99795.19
2023-01-04T06:34:01.657Z,99785.13
2023-01-04T06:36:31.934Z,99782.09
2023-01-04T06:39:02.366Z,99784.84
2023-01-04T06:41:32.508Z,99781.09
2023-01-04T06:44:03.991Z,99770.06
2023-01-04T06:46:34.569Z,99765.13
2023-01-04T06:49:08.196Z,99759.78
2023-01-04T06:51:38.628Z,99757.47
2023-01-04T06:54:08.361Z,99753.63
2023-01-04T06:56:38.793Z,99753.84
2023-01-04T06:59:08.314Z,99745.34
2023-01-04T07:01:37.771Z,99743.81
2023-01-04T07:04:07.475Z,99733.16
2023-01-04T07:06:36.611Z,99732.66
2023-01-04T07:09:05.951Z,99725.19
2023-01-04T07:11:35.242Z,99732.47
2023-01-04T07:14:04.466Z,99724.56
2023-01-04T07:16:33.782Z,99723.66
2023-01-04T07:19:03.056Z,99714.72
2023-01-04T07:21:32.452Z,99709.84
2023-01-04T07:24:02.240Z,99707.09
2023-01-04T07:26:32.312Z,99705.78
2023-01-04T07:29:17.674Z,99704.53
2023-01-04T07:31:52.258Z,99702.72
2023-01-04T07:34:24.455Z,99689.69
2023-01-04T07:36:53.820Z,99689.66
2023-01-04T07:39:23.144Z,99689.28
2023-01-04T07:41:52.569Z,99682.19
2023-01-04T07:44:23.128Z,99677.00
2023-01-04T07:46:52.589Z,99673.66
2023-01-04T07:49:22.841Z,99661.00
2023-01-04T07:51:51.815Z,99664.50
2023-01-04T07:54:21.927Z,99654.53
2023-01-04T07:56:51.520Z,99651.75
2023-01-04T07:59:21.913Z,99652.81
2023-01-04T08:01:52.244Z,99645.00
2023-01-04T08:04:28.344Z,99640.88
2023-01-04T08:07:00.689Z,99639.16
2023-01-04T08:09:30.039Z,99637.66
2023-01-04T08:11:59.758Z,99634.25
2023-01-04T08:14:29.394Z,99624.13
2023-01-04T08:16:58.517Z,99619.88
2023-01-04T08:19:28.818Z,99606.25
2023-01-04T08:21:58.236Z,99616.94
2023-01-04T08:24:28.323Z,99606.88
2023-01-04T08:26:57.681Z,99607.69
2023-01-04T08:29:31.141Z,99599.78
2023-01-04T08:32:04.843Z,99588.00
2023-01-04T08:34:34.246Z,99587.22
2023-01-04T08:37:03.576Z,99582.38
2023-01-04T08:39:36.501Z,99580.50
2023-01-04T08:42:18.736Z,99576.38
2023-01-04T08:44:57.054Z,99571.13
2023-01-04T08:47:30.214Z,99569.50
2023-01-04T08:50:04.791Z,99570.44
2023-01-04T08:52:37.204Z,99564.38
2023-01-04T08:55:12.687Z,99567.84
2023-01-04T08:57:43.918Z,99557.53
2023-01-04T09:00:13.773Z,99551.75
2023-01-04T09:02:43.206Z,99551.00
2023-01-04T09:05:21.995Z,99556.09
2023-01-04T09:07:53.442Z,99544.16
2023-01-04T09:10:23.517Z,99548.47
2023-01-04T09:12:52.898Z,99540.72
2023-01-04T09:15:22.352Z,99540.72
2023-01-04T09:18:29.396Z,99536.66
2023-01-04T09:20:41.519Z,99528.13
2023-01-04T09:23:11.058Z,99532.28
2023-01-04T09:25:41.243Z,99535.91
2023-01-04T09:28:10.718Z,99528.06
2023-01-04T09:30:40.101Z,99527.22
2023-01-04T09:33:09.446Z,99522.84
2023-01-04T09:35:39.212Z,99532.50
2023-01-04T09:38:08.060Z,99523.78
2023-01-04T09:41:04.089Z,99526.63
2023-01-04T09:43:56.668Z,99522.22
2023-01-04T09:46:42.146Z,99512.97
2023-01-04T09:49:18.079Z,99515.34
2023-01-04T09:52:14.717Z,99512.91
2023-01-04T09:54:47.314Z,99517.13
2023-01-04T09:57:41.391Z,99509.53
2023-01-04T10:00:27.159Z,99502.69
2023-01-04T10:03:27.224Z,99503.53
2023-01-04T10:06:01.027Z,99509.53
2023-01-04T10:08:32.621Z,99502.59
2023-01-04T10:11:17.696Z,99500.00
2023-01-04T10:13:55.933Z,99491.38
2023-01-04T10:17:28.129Z,99488.84
2023-01-04T10:23:17.365Z,99480.34
2023-01-04T10:25:58.020Z,99488.91
2023-01-04T10:28:51.416Z,99486.41
2023-01-04T10:31:40.321Z,99481.91
2023-01-04T10:34:22.317Z,99481.06
2023-01-04T10:36:57.347Z,99484.47
2023-01-04T10:39:33.931Z,99479.41
2023-01-04T10:42:22.330Z,99482.94
2023-01-04T10:45:05.025Z,99482.06
2023-01-04T10:48:09.542Z,99485.50
2023-01-04T10:50:46.507Z,99476.06
2023-01-04T10:53:54.105Z,99475.06
2023-01-04T10:56:32.419Z,99484.41
2023-01-04T10:59:25.229Z,99469.13
2023-01-04T11:01:54.676Z,99472.44
2023-01-04T11:04:35.539Z,99472.50
2023-01-04T11:07:14.613Z,99470.72
2023-01-04T11:10:02.903Z,99486.22
2023-01-04T11:12:32.830Z,99480.91
2023-01-04T11:15:02.385Z,99480.16
2023-01-04T11:17:33.584Z,99475.00
2023-01-04T11:20:03.312Z,99480.94
2023-01-04T11:22:41.880Z,99478.31
2023-01-04T11:25:36.526Z,99476.50
2023-01-04T11:28:21.938Z,99475.75
2023-01-04T11:31:05.174Z,99480.88
2023-01-04T11:33:53.114Z,99483.44
2023-01-04T11:36:46.022Z,99479.13
2023-01-04T11:39:22.647Z,99484.28
2023-01-04T11:42:07.001Z,99476.47
2023-01-04T11:44:37.773Z,99467.75
2023-01-04T11:47:14.043Z,99473.69
2023-01-04T11:49:43.353Z,99470.09
2023-01-04T11:52:31.793Z,99469.34
2023-01-04T11:55:26.784Z,99465.88
2023-01-04T11:58:12.279Z,99468.38
2023-01-04T12:00:55.721Z,99471.78
2023-01-04T12:03:33.175Z,99473.38
2023-01-04T12:06:02.992Z,99472.38
2023-01-04T12:08:38.816Z,99473.31
2023-01-04T12:11:08.226Z,99473.16
2023-01-04T12:13:39.058Z,99475.59
2023-01-04T12:16:45.596Z,99480.03
2023-01-04T12:19:20.087Z,99493.59
2023-01-04T12:22:03.945Z,99485.84
2023-01-04T12:24:37.010Z,99488.22
2023-01-04T12:27:15.975Z,99489.09
2023-01-04T12:29:55.780Z,99483.75
2023-01-04T12:32:25.265Z,99491.31
2023-01-04T12:34:56.096Z,99486.22
2023-01-04T12:37:43.723Z,99487.97
2023-01-04T12:40:46.391Z,99489.66
2023-01-04T12:43:18.589Z,99498.97
2023-01-04T12:48:55.529Z,99504.78
2023-01-04T12:51:34.205Z,99498.75
2023-01-04T12:54:07.626Z,99497.84
2023-01-04T12:57:13.596Z,99508.13
2023-01-04T13:00:13.770Z,99505.50
2023-01-04T13:03:02.294Z,99506.94
2023-01-04T13:05:58.199Z,99506.25
2023-01-04T13:08:29.234Z,99505.13
2023-01-04T13:10:58.864Z,99504.13
2023-01-04T13:13:57.985Z,99504.38
2023-01-04T13:16:58.205Z,99512.94
2023-01-04T13:19:30.346Z,99511.81
2023-01-04T13:22:00.280Z,99516.00
2023-01-04T13:24:33.088Z,99516.78
2023-01-04T13:27:15.931Z,99510.91
2023-01-04T13:29:46.433Z,99520.06
2023-01-04T13:32:18.787Z,99517.44
2023-01-04T13:34:55.905Z,99512.41
2023-01-04T13:37:47.830Z,99522.25
2023-01-04T13:40:37.149Z,99525.00
2023-01-04T13:43:33.791Z,99522.41
2023-01-04T13:46:15.372Z,99528.28
2023-01-04T13:48:48.660Z,99534.94
2023-01-04T13:51:37.434Z,99535.94
2023-01-04T13:54:24.382Z,99532.44
2023-01-04T13:56:56.004Z,99537.31
2023-01-04T13:59:25.420Z,99534.75
2023-01-04T14:01:54.788Z,99538.09
2023-01-04T14:04:29.936Z,99545.09
2023-01-04T14:07:02.577Z,99544.13
2023-01-04T14:09:33.976Z,99547.78
2023-01-04T14:12:14.914Z,99546.75
2023-01-04T14:14:52.969Z,99559.47
2023-01-04T14:17:35.253Z,99558.75
2023-01-04T14:20:07.352Z,99561.19
2023-01-04T14:22:48.760Z,99566.31
2023-01-04T14:25:49.531Z,99564.69
2023-01-04T14:28:47.027Z,99563.75
2023-01-04T14:31:23.207Z,99570.53
2023-01-04T14:33:54.515Z,99567.06
2023-01-04T14:36:30.167Z,99564.47
2023-01-04T14:39:01.387Z,99564.47
2023-01-04T14:42:03.192Z,99564.25
2023-01-04T14:44:35.272Z,99564.19
2023-01-04T14:47:07.559Z,99560.63
2023-01-04T14:49:37.402Z,99572.47
2023-01-04T14:52:13.687Z,99580.38
2023-01-04T14:54:43.429Z,99582.63
2023-01-04T14:57:12.879Z,99582.41
2023-01-04T14:59:45.142Z,99587.47
2023-01-04T15:02:15.138Z,99591.72
2023-01-04T15:04:44.738Z,99591.66
2023-01-04T15:07:36.655Z,99594.44
2023-01-04T15:10:08.352Z,99592.41
2023-01-04T15:12:37.485Z,99597.38
2023-01-04T15:15:07.483Z,99600.81
2023-01-04T15:17:37.008Z,99599.94
2023-01-04T15:20:07.839Z,99600.00
2023-01-04T15:22:37.104Z,99596.44
2023-01-04T15:25:08.544Z,99595.56
2023-01-04T15:27:42.131Z,99597.19
2023-01-04T15:30:13.921Z,99601.44
2023-01-04T15:32:43.888Z,99596.94
2023-01-04T15:35:17.115Z,99595.16
2023-01-04T15:37:48.620Z,99607.19
2023-01-04T15:40:20.465Z,99604.69
2023-01-04T15:43:02.114Z,99598.47
2023-01-04T15:45:36.810Z,99605.41
2023-01-04T15:48:11.137Z,99610.34
2023-01-04T15:50:43.033Z,99611.22
2023-01-04T15:53:12.367Z,99613.53
2023-01-04T15:55:42.369Z,99611.59
2023-01-04T15:58:12.361Z,99611.44
2023-01-04T16:00:41.970Z,99614.75
2023-01-04T16:03:11.278Z,99617.47
2023-01-04T16:05:41.260Z,99619.16
2023-01-04T16:08:11.009Z,99621.78
2023-01-04T16:10:40.275Z,99621.84
2023-01-04T16:13:10.528Z,99625.22
2023-01-04T16:15:39.850Z,99626.94
2023-01-04T16:18:12.740Z,99626.00
2023-01-04T16:20:43.157Z,99629.44
2023-01-04T16:23:13.002Z,99629.41
2023-01-04T16:25:42.901Z,99640.47
2023-01-04T16:28:12.576Z,99639.47
2023-01-04T16:30:44.158Z,99633.41
2023-01-04T16:33:14.039Z,99635.97
2023-01-04T16:35:42.945Z,99630.78
2023-01-04T16:38:13.801Z,99637.78
2023-01-04T16:40:46.663Z,99635.97
2023-01-04T16:43:16.803Z,99633.41
2023-01-04T16:45:49.663Z,99646.13
2023-01-04T16:48:19.052Z,99642.47
2023-01-04T16:50:48.988Z,99643.22
2023-01-04T16:53:21.946Z,99645.44
2023-01-04T16:55:55.525Z,99652.44
2023-01-04T16:58:30.505Z,99661.03
2023-01-04T17:01:11.369Z,99656.81
2023-01-04T17:03:44.569Z,99660.69
2023-01-04T17:06:23.860Z,99670.00
2023-01-04T17:08:56.183Z,99675.81
2023-01-04T17:14:23.603Z,99674.06
2023-01-04T17:16:56.675Z,99672.66
2023-01-04T17:19:26.012Z,99669.13
2023-01-04T17:21:56.421Z,99659.81
2023-01-04T17:24:27.404Z,99664.09
2023-01-04T17:26:57.104Z,99660.81
2023-01-04T17:29:27.330Z,99660.06
2023-01-04T17:31:57.037Z,99657.97
2023-01-04T17:34:27.486Z,99653.72
2023-01-04T17:36:56.723Z,99660.38
2023-01-04T17:39:27.853Z,99657.91
2023-01-04T17:41:57.011Z,99662.09
2023-01-04T17:44:33.299Z,99656.84
2023-01-04T17:47:04.151Z,99656.75
2023-01-04T17:49:34.117Z,99664.94
2023-01-04T17:52:04.173Z,99655.13
2023-01-04T17:54:36.715Z,99655.34
2023-01-04T17:57:07.220Z,99651.88
2023-01-04T17:59:38.347Z,99650.97
2023-01-04T18:02:08.966Z,99646.22
2023-01-04T18:04:38.594Z,99652.16
2023-01-04T18:07:07.929Z,99648.22
2023-01-04T18:09:37.535Z,99638.91
2023-01-04T18:12:07.169Z,99643.75
2023-01-04T18:14:36.807Z,99638.59
2023-01-04T18:17:07.084Z,99641.31
2023-01-04T18:19:37.444Z,99638.75
2023-01-04T18:22:09.007Z,99642.06
2023-01-04T18:24:39.280Z,99646.75
2023-01-04T18:27:23.115Z,99645.72
2023-01-04T18:29:56.281Z,99650.56
2023-01-04T18:32:27.785Z,99643.19
2023-01-04T18:34:56.993Z,99645.13
2023-01-04T18:37:26.758Z,99641.06
2023-01-04T18:39:55.836Z,99633.25
2023-01-04T18:42:25.378Z,99642.91
2023-01-04T18:44:54.742Z,99639.28
2023-01-04T18:47:24.705Z,99643.78
2023-01-04T18:49:54.003Z,99645.22
2023-01-04T18:52:23.171Z,99646.25
2023-01-04T18:54:52.674Z,99647.28
2023-01-04T18:57:21.910Z,99643.72
2023-01-04T18:59:52.731Z,99647.47
2023-01-04T19:02:22.546Z,99641.34
2023-01-04T19:04:51.931Z,99629.94
2023-01-04T19:07:21.384Z,99635.56
2023-01-04T19:09:50.704Z,99631.69
2023-01-04T19:12:20.268Z,99642.06
2023-01-04T19:14:50.803Z,99635.44
2023-01-04T19:17:25.214Z,99637.28
2023-01-04T19:19:54.707Z,99640.38
2023-01-04T19:22:23.762Z,99638.25
2023-01-04T19:24:52.862Z,99640.56
2023-01-04T19:27:21.962Z,99644.13
2023-01-04T19:29:51.287Z,99639.06
2023-01-04T19:32:22.221Z,99640.66
2023-01-04T19:34:51.553Z,99634.94
2023-01-04T19:37:20.812Z,99633.63
2023-01-04T19:39:50.241Z,99628.44
2023-01-04T19:42:19.329Z,99626.69
2023-01-04T19:44:48.673Z,99625.25
2023-01-04T19:47:17.887Z,99632.19
2023-01-04T19:49:49.035Z,99625.56
2023-01-04T19:52:18.162Z,99629.50
2023-01-04T19:54:47.565Z,99637.38
2023-01-04T19:57:17.012Z,99636.97
2023-01-04T19:59:46.290Z,99638.19
2023-01-04T20:02:15.301Z,99639.53
2023-01-04T20:04:44.914Z,99636.69
2023-01-04T20:07:14.273Z,99636.06
2023-01-04T20:09:43.531Z,99644.66
2023-01-04T20:12:12.600Z,99642.06
2023-01-04T20:14:41.619Z,99642.38
2023-01-04T20:17:11.109Z,99635.28
2023-01-04T20:19:40.642Z,99636.78
2023-01-04T20:22:10.117Z,99646.97
2023-01-04T20:24:39.616Z,99640.66
2023-01-04T20:27:08.917Z,99645.13
2023-01-04T20:29:38.816Z,99640.13
2023-01-04T20:32:08.263Z,99641.09
2023-01-04T20:34:37.486Z,99632.38
2023-01-04T20:37:06.945Z,99635.41
2023-01-04T20:39:36.113Z,99632.00
2023-01-04T20:42:23.610Z,99633.19
2023-01-04T20:44:52.819Z,99631.38
2023-01-04T20:47:22.245Z,99638.28
2023-01-04T20:49:51.337Z,99638.22
2023-01-04T20:52:20.607Z,99636.75
2023-01-04T20:54:51.232Z,99636.84
2023-01-04T20:57:20.877Z,99646.50
2023-01-04T20:59:50.032Z,99644.31
2023-01-04T21:02:20.696Z,99640.22
2023-01-04T21:04:50.174Z,99645.97
2023-01-04T21:07:19.484Z,99641.16
2023-01-04T21:09:48.622Z,99645.50
2023-01-04T21:12:18.979Z,99641.97
2023-01-04T21:14:48.390Z,99640.50
2023-01-04T21:17:17.192Z,99627.81
2023-01-04T21:19:46.864Z,99625.63
2023-01-04T21:22:16.039Z,99614.22
2023-01-04T21:24:45.244Z,99617.41
2023-01-04T21:27:14.867Z,99609.97
2023-01-04T21:29:43.703Z,99603.22
2023-01-04T21:32:12.931Z,99613.03
2023-01-04T21:34:42.270Z,99607.66
2023-01-04T21:37:11.727Z,99597.22
2023-01-04T21:39:40.925Z,99600.00
2023-01-04T21:42:10.534Z,99603.66
2023-01-04T21:44:39.855Z,99598.28
2023-01-04T21:47:09.146Z,99598.06
2023-01-04T21:49:37.970Z,99600.44
2023-01-04T21:52:07.347Z,99599.63
2023-01-04T21:54:36.920Z,99599.81
2023-01-04T21:57:08.997Z,99603.06
2023-01-04T21:59:38.372Z,99613.09
2023-01-04T22:02:07.471Z,99613.25
2023-01-04T22:04:36.895Z,99607.38
2023-01-04T22:07:06.134Z,99610.00
2023-01-04T22:09:35.652Z,99607.44
2023-01-04T22:12:06.442Z,99605.44
2023-01-04T22:14:36.691Z,99603.06
2023-01-04T22:17:05.927Z,99600.41
2023-01-04T22:19:35.484Z,99597.88
2023-01-04T22:22:04.779Z,99593.22
2023-01-04T22:24:37.802Z,99589.13
2023-01-04T22:27:07.670Z,99585.19
2023-01-04T22:29:36.836Z,99574.81
2023-01-04T22:32:08.584Z,99577.19
2023-01-04T22:34:37.857Z,99567.06
2023-01-04T22:37:06.958Z,99567.06
2023-01-04T22:39:36.328Z,99560.38
2023-01-04T22:42:05.599Z,99562.25
2023-01-04T22:44:34.795Z,99559.41
2023-01-04T22:47:04.329Z,99557.66
2023-01-04T22:49:34.162Z,99549.22
2023-01-04T22:52:03.164Z,99545.63
2023-01-04T22:54:34.065Z,99547.19
2023-01-04T22:57:03.437Z,99545.94
2023-01-04T22:59:32.255Z,99545.91
2023-01-04T23:02:01.285Z,99552.44
2023-01-04T23:04:30.076Z,99542.03
2023-01-04T23:06:59.923Z,99540.16
2023-01-04T23:09:28.929Z,99541.03
2023-01-04T23:11:58.339Z,99543.22
2023-01-04T23:14:27.474Z,99548.88
2023-01-04T23:16:56.368Z,99544.75
2023-01-04T23:19:26.005Z,99541.31
2023-01-04T23:21:54.959Z,99527.59
2023-01-04T23:24:24.206Z,99538.72
2023-01-04T23:26:53.389Z,99533.78
2023-01-04T23:29:22.904Z,99532.25
2023-01-04T23:31:51.891Z,99530.53
2023-01-04T23:34:21.180Z,99539.00
2023-01-04T23:36:50.138Z,99544.28
2023-01-04T23:39:19.652Z,99540.06
2023-01-04T23:41:48.925Z,99551.22
2023-01-04T23:46:56.666Z,99543.22
2023-01-04T23:49:27.570Z,99544.34
2023-01-04T23:51:57.311Z,99549.28
2023-01-04T23:54:26.956Z,99544.84
2023-01-04T23:56:56.962Z,99553.22
2023-01-04T23:59:26.619Z,99553.50
